sensor_id;sensor_type;location;lat;lon;timestamp;pressure;altitude;pressure_sealevel;temperature;humidity
57376;BME280;44805;45.048;5.062;2022-12-18T12:33:38;100824.97;;;4.96;93.17
57376;BME280;44805;45.048;5.062;2022-12-18T12:38:57;100703.69;;;4.26;93.12
57376;BME280;44805;45.048;5.062;2022-12-18T13:07:20;100678.69;;;4.53;95.63
57376;BME280;44805;45.048;5.062;2022-12-18T13:10:24;100798.84;;;5.42;95.66
57376;BME280;44805;45.048;5.062;2022-12-18T13:13:00;100803.03;;;5.75;94.20
57376;BME280;44805;45.048;5.062;2022-12-18T13:15:48;100789.13;;;5.89;93.61
57376;BME280;44805;45.048;5.062;2022-12-18T13:18:24;100789.03;;;5.91;93.69
57376;BME280;44805;45.048;5.062;2022-12-18T13:21:02;100748.03;;;5.48;94.33
57376;BME280;44805;45.048;5.062;2022-12-18T13:23:33;100786.31;;;5.78;94.94
57376;BME280;44805;45.048;5.062;2022-12-18T13:29:08;100750.56;;;5.78;95.22
57376;BME280;44805;45.048;5.062;2022-12-18T13:32:10;100642.66;;;6.05;95.61
57376;BME280;44805;45.048;5.062;2022-12-18T13:52:18;100607.28;;;8.65;81.03
57376;BME280;44805;45.048;5.062;2022-12-18T13:55:27;100695.78;;;9.22;80.37
57376;BME280;44805;45.048;5.062;2022-12-18T13:58:12;100671.88;;;9.14;80.93
57376;BME280;44805;45.048;5.062;2022-12-18T14:03:29;100680.50;;;9.27;80.51
57376;BME280;44805;45.048;5.062;2022-12-18T14:06:25;100640.31;;;9.03;79.99
57376;BME280;44805;45.048;5.062;2022-12-18T14:09:02;100617.25;;;8.84;79.28
57376;BME280;44805;45.048;5.062;2022-12-18T14:11:45;100740.66;;;9.66;79.63
57376;BME280;44805;45.048;5.062;2022-12-18T14:14:47;100671.75;;;9.04;80.09
57376;BME280;44805;45.048;5.062;2022-12-18T14:17:27;100694.09;;;9.10;80.40
57376;BME280;44805;45.048;5.062;2022-12-18T14:20:32;100684.28;;;9.01;81.20
57376;BME280;44805;45.048;5.062;2022-12-18T14:23:37;100742.22;;;9.57;78.93
57376;BME280;44805;45.048;5.062;2022-12-18T14:26:24;100740.06;;;9.62;79.08
57376;BME280;44805;45.048;5.062;2022-12-18T14:28:59;100624.88;;;8.76;79.04
57376;BME280;44805;45.048;5.062;2022-12-18T14:31:43;100747.38;;;9.70;78.33
57376;BME280;44805;45.048;5.062;2022-12-18T14:34:42;100700.47;;;9.30;78.29
57376;BME280;44805;45.048;5.062;2022-12-18T14:37:26;100757.13;;;9.56;78.34
57376;BME280;44805;45.048;5.062;2022-12-18T14:40:15;100636.03;;;9.02;78.42
57376;BME280;44805;45.048;5.062;2022-12-18T14:42:58;100614.22;;;8.66;78.51
57376;BME280;44805;45.048;5.062;2022-12-18T14:45:44;100681.56;;;9.13;78.43
57376;BME280;44805;45.048;5.062;2022-12-18T14:48:37;100609.72;;;8.68;77.83
57376;BME280;44805;45.048;5.062;2022-12-18T14:51:27;100709.31;;;9.40;77.31
57376;BME280;44805;45.048;5.062;2022-12-18T14:54:18;100635.53;;;8.85;78.28
57376;BME280;44805;45.048;5.062;2022-12-18T14:56:49;100670.69;;;9.07;78.92
57376;BME280;44805;45.048;5.062;2022-12-18T14:59:47;100684.53;;;9.09;78.21
57376;BME280;44805;45.048;5.062;2022-12-18T15:02:27;100624.06;;;8.75;78.05
57376;BME280;44805;45.048;5.062;2022-12-18T15:05:17;100668.53;;;9.01;78.89
57376;BME280;44805;45.048;5.062;2022-12-18T15:08:24;100640.91;;;8.84;78.74
57376;BME280;44805;45.048;5.062;2022-12-18T15:10:56;100740.38;;;9.46;79.62
57376;BME280;44805;45.048;5.062;2022-12-18T15:13:23;100615.41;;;8.62;79.77
57376;BME280;44805;45.048;5.062;2022-12-18T15:15:49;100667.25;;;8.82;81.05
57376;BME280;44805;45.048;5.062;2022-12-18T15:18:18;100651.97;;;8.76;80.44
57376;BME280;44805;45.048;5.062;2022-12-18T15:21:09;100689.25;;;8.93;81.04
57376;BME280;44805;45.048;5.062;2022-12-18T15:23:53;100594.47;;;8.25;80.27
57376;BME280;44805;45.048;5.062;2022-12-18T15:26:24;100738.41;;;9.15;81.23
57376;BME280;44805;45.048;5.062;2022-12-18T15:28:55;100650.34;;;8.62;80.29
57376;BME280;44805;45.048;5.062;2022-12-18T15:31:24;100750.47;;;9.17;80.02
57376;BME280;44805;45.048;5.062;2022-12-18T15:36:32;100615.97;;;8.30;80.59
57376;BME280;44805;45.048;5.062;2022-12-18T15:39:02;100669.47;;;8.64;80.14
57376;BME280;44805;45.048;5.062;2022-12-18T15:48:22;100691.63;;;8.84;79.21
57376;BME280;44805;45.048;5.062;2022-12-18T15:51:04;100639.31;;;8.46;79.33
57376;BME280;44805;45.048;5.062;2022-12-18T15:54:12;100622.44;;;8.37;78.81
57376;BME280;44805;45.048;5.062;2022-12-18T15:56:39;100683.41;;;8.65;79.55
57376;BME280;44805;45.048;5.062;2022-12-18T15:59:24;100691.66;;;8.60;81.26
57376;BME280;44805;45.048;5.062;2022-12-18T16:01:51;100634.66;;;8.01;82.34
57376;BME280;44805;45.048;5.062;2022-12-18T16:04:21;100779.25;;;8.83;81.83
57376;BME280;44805;45.048;5.062;2022-12-18T16:06:48;100686.22;;;8.14;83.46
57376;BME280;44805;45.048;5.062;2022-12-18T16:09:14;100728.69;;;8.19;84.03
57376;BME280;44805;45.048;5.062;2022-12-18T16:14:44;100642.91;;;7.71;84.89
57376;BME280;44805;45.048;5.062;2022-12-18T16:17:10;100715.31;;;7.98;87.00
57376;BME280;44805;45.048;5.062;2022-12-18T16:19:39;100635.09;;;7.33;86.21
57376;BME280;44805;45.048;5.062;2022-12-18T16:22:29;100657.28;;;7.40;86.78
57376;BME280;44805;45.048;5.062;2022-12-18T21:15:57;100722.78;;;7.66;89.68
